Aeroporto :
LOGIN :

Iscrizione | Disclaimer

   EN    FR    IT 

 










Sommario :    VFR   VFR Marginale   IFR   IFR Intensivo   IFR Molto Intensivo
Visibilità : 
Base nubi : 
>= 8 km
>= 3000ft
5 / 8 km
1000 / 3000 ft
1500m / 5 km
500 / 1000 ft
800 / 1500m
200 / 500 ft
< 800m
< 200 ft
Simboli :   Temporali  Nebbia  Neve Forte  Precipitazioni Forti  Vento > 20 kt
SIGMETs :   Varie  Temporali  Ghiacco  Turbolenza  Onda orograficha  Ceneri Vulcaniche







- Altitudine del aeroporto : 650 ft
- Codice IATA : ZJI


LSZL - Locarno

ULTIMO METAR :
  • 182350Z AUTO 00000KT 9999NDV NCD 01/M01 Q1023 RMK

METARs OBSOLETI :
  • 182320Z AUTO 36001KT 9999NDV NCD 01/M01 Q1023 RMK
  • 182250Z AUTO 04001KT 9999NDV NCD 01/M01 Q1023 RMK
  • 182150Z AUTO 00000KT 9999NDV NCD 02/M00 Q1023 RMK
  • 182120Z AUTO 00000KT 9999NDV FEW240 03/M00 Q1023 RMK

TAF TAF LSZL
Valido dal 18 a 18 ore il 19 a 03 ore UTC


181725Z 1818/1903 VRB03KT CAVOK
Nessun NOTAM noto per questo aeroporto.



MetMap, La meteo Aeronautica in un colpo d'occhio ! - Copyright ORBIFLY Dicembre 2007 - Disclaimer

ORBIFLY MET'MAP TEAM :

Programmazione e sviluppo : Alexandra Zaïnal
Concezione e sviluppo : Baudouin d'Aumeries
Co-Programmazione e sviluppo : Marc-Olivier Méhu
Supporto tecnico e logistico : Manuel Goepfert
Aiuto per la traduzione : Arnaldo La Scala

Contatto : metmap@orbifly.com




FONTI E CREDITI :

   NOAA